sensor_id;sensor_type;location;lat;lon;timestamp;temperature;humidity
13416;DHT22;6779;50.150;8.680;2022-12-05T00:03:57;3.50;99.90
13416;DHT22;6779;50.150;8.680;2022-12-05T00:06:24;3.50;99.90
13416;DHT22;6779;50.150;8.680;2022-12-05T00:08:50;3.50;99.90
13416;DHT22;6779;50.150;8.680;2022-12-05T00:11:20;3.50;99.90
13416;DHT22;6779;50.150;8.680;2022-12-05T00:13:47;3.40;99.90
13416;DHT22;6779;50.150;8.680;2022-12-05T00:16:15;3.40;99.90
13416;DHT22;6779;50.150;8.680;2022-12-05T00:18:41;3.40;99.90
13416;DHT22;6779;50.150;8.680;2022-12-05T00:21:11;3.50;99.90
13416;DHT22;6779;50.150;8.680;2022-12-05T00:23:37;3.40;99.90
13416;DHT22;6779;50.150;8.680;2022-12-05T00:26:04;3.40;99.90
13416;DHT22;6779;50.150;8.680;2022-12-05T00:28:30;3.40;99.90
13416;DHT22;6779;50.150;8.680;2022-12-05T00:30:56;3.40;99.90
13416;DHT22;6779;50.150;8.680;2022-12-05T00:33:22;3.40;99.90
13416;DHT22;6779;50.150;8.680;2022-12-05T00:35:47;3.40;99.90
13416;DHT22;6779;50.150;8.680;2022-12-05T00:38:13;3.50;99.90
13416;DHT22;6779;50.150;8.680;2022-12-05T00:40:38;3.60;99.90
13416;DHT22;6779;50.150;8.680;2022-12-05T00:43:04;3.40;99.90
13416;DHT22;6779;50.150;8.680;2022-12-05T00:45:29;3.40;99.90
13416;DHT22;6779;50.150;8.680;2022-12-05T00:47:55;3.50;99.90
13416;DHT22;6779;50.150;8.680;2022-12-05T00:50:20;3.50;99.90
13416;DHT22;6779;50.150;8.680;2022-12-05T00:52:46;3.40;99.90
13416;DHT22;6779;50.150;8.680;2022-12-05T00:55:11;3.40;99.90
13416;DHT22;6779;50.150;8.680;2022-12-05T00:57:37;3.50;99.90
13416;DHT22;6779;50.150;8.680;2022-12-05T01:00:04;3.40;99.90
13416;DHT22;6779;50.150;8.680;2022-12-05T01:02:30;3.50;99.90
13416;DHT22;6779;50.150;8.680;2022-12-05T01:04:55;3.50;99.90
13416;DHT22;6779;50.150;8.680;2022-12-05T01:07:21;3.40;99.90
13416;DHT22;6779;50.150;8.680;2022-12-05T01:09:46;3.40;99.90
13416;DHT22;6779;50.150;8.680;2022-12-05T01:12:12;3.40;99.90
13416;DHT22;6779;50.150;8.680;2022-12-05T01:14:37;3.40;99.90
13416;DHT22;6779;50.150;8.680;2022-12-05T01:17:03;3.50;99.90
13416;DHT22;6779;50.150;8.680;2022-12-05T01:19:30;3.60;99.90
13416;DHT22;6779;50.150;8.680;2022-12-05T01:21:57;3.60;99.90
13416;DHT22;6779;50.150;8.680;2022-12-05T01:24:24;3.60;99.90
13416;DHT22;6779;50.150;8.680;2022-12-05T01:26:50;3.60;99.90
13416;DHT22;6779;50.150;8.680;2022-12-05T01:29:18;3.60;99.90
13416;DHT22;6779;50.150;8.680;2022-12-05T01:31:44;3.60;99.90
13416;DHT22;6779;50.150;8.680;2022-12-05T01:34:13;3.60;99.90
13416;DHT22;6779;50.150;8.680;2022-12-05T01:36:39;3.60;99.90
13416;DHT22;6779;50.150;8.680;2022-12-05T01:39:06;3.60;99.90
13416;DHT22;6779;50.150;8.680;2022-12-05T01:41:35;3.50;99.90
13416;DHT22;6779;50.150;8.680;2022-12-05T01:46:34;3.60;99.90
13416;DHT22;6779;50.150;8.680;2022-12-05T01:49:09;3.50;99.90
13416;DHT22;6779;50.150;8.680;2022-12-05T01:51:37;3.60;99.90
13416;DHT22;6779;50.150;8.680;2022-12-05T01:54:05;3.60;99.90
13416;DHT22;6779;50.150;8.680;2022-12-05T01:56:31;3.60;99.90
13416;DHT22;6779;50.150;8.680;2022-12-05T01:58:58;3.50;99.90
13416;DHT22;6779;50.150;8.680;2022-12-05T02:01:24;3.50;99.90
13416;DHT22;6779;50.150;8.680;2022-12-05T02:03:53;3.50;99.90
13416;DHT22;6779;50.150;8.680;2022-12-05T02:06:20;3.50;99.90
13416;DHT22;6779;50.150;8.680;2022-12-05T02:08:47;3.50;99.90
13416;DHT22;6779;50.150;8.680;2022-12-05T02:11:13;3.50;99.90
13416;DHT22;6779;50.150;8.680;2022-12-05T02:13:49;3.50;99.90
13416;DHT22;6779;50.150;8.680;2022-12-05T02:16:42;3.50;99.90
13416;DHT22;6779;50.150;8.680;2022-12-05T02:25:04;3.50;99.90
13416;DHT22;6779;50.150;8.680;2022-12-05T02:30:59;3.50;99.90
13416;DHT22;6779;50.150;8.680;2022-12-05T02:33:34;3.60;99.90
13416;DHT22;6779;50.150;8.680;2022-12-05T02:36:02;3.60;99.90
13416;DHT22;6779;50.150;8.680;2022-12-05T02:38:58;3.60;99.90
13416;DHT22;6779;50.150;8.680;2022-12-05T02:41:40;3.50;99.90
13416;DHT22;6779;50.150;8.680;2022-12-05T02:44:21;3.60;99.90
13416;DHT22;6779;50.150;8.680;2022-12-05T02:46:47;3.60;99.90
13416;DHT22;6779;50.150;8.680;2022-12-05T02:49:19;3.60;99.90
13416;DHT22;6779;50.150;8.680;2022-12-05T02:51:51;3.60;99.90
13416;DHT22;6779;50.150;8.680;2022-12-05T02:54:24;3.60;99.90
13416;DHT22;6779;50.150;8.680;2022-12-05T02:56:52;3.60;99.90
13416;DHT22;6779;50.150;8.680;2022-12-05T02:59:18;3.60;99.90
13416;DHT22;6779;50.150;8.680;2022-12-05T03:01:45;3.60;99.90
13416;DHT22;6779;50.150;8.680;2022-12-05T03:04:12;3.60;99.90
13416;DHT22;6779;50.150;8.680;2022-12-05T03:06:42;3.60;99.90
13416;DHT22;6779;50.150;8.680;2022-12-05T03:09:18;3.60;99.90
13416;DHT22;6779;50.150;8.680;2022-12-05T03:11:48;3.60;99.90
13416;DHT22;6779;50.150;8.680;2022-12-05T03:14:19;3.60;99.90
13416;DHT22;6779;50.150;8.680;2022-12-05T03:16:51;3.70;99.90
13416;DHT22;6779;50.150;8.680;2022-12-05T03:19:25;3.70;99.90
13416;DHT22;6779;50.150;8.680;2022-12-05T03:21:58;3.70;99.90
13416;DHT22;6779;50.150;8.680;2022-12-05T03:24:25;3.60;99.90
13416;DHT22;6779;50.150;8.680;2022-12-05T03:27:29;3.60;99.90
13416;DHT22;6779;50.150;8.680;2022-12-05T03:30:02;3.70;99.90
13416;DHT22;6779;50.150;8.680;2022-12-05T03:35:29;3.70;99.90
13416;DHT22;6779;50.150;8.680;2022-12-05T03:38:06;3.70;99.90
13416;DHT22;6779;50.150;8.680;2022-12-05T03:40:47;3.60;99.90
13416;DHT22;6779;50.150;8.680;2022-12-05T03:46:15;3.70;99.90
13416;DHT22;6779;50.150;8.680;2022-12-05T03:48:56;3.60;99.90
13416;DHT22;6779;50.150;8.680;2022-12-05T03:51:31;3.60;99.90
13416;DHT22;6779;50.150;8.680;2022-12-05T03:54:05;3.60;99.90
13416;DHT22;6779;50.150;8.680;2022-12-05T03:56:42;3.50;99.90
13416;DHT22;6779;50.150;8.680;2022-12-05T03:59:23;3.40;99.90
13416;DHT22;6779;50.150;8.680;2022-12-05T04:01:51;3.50;99.90
13416;DHT22;6779;50.150;8.680;2022-12-05T04:04:39;3.60;99.90
13416;DHT22;6779;50.150;8.680;2022-12-05T04:07:07;3.60;99.90
13416;DHT22;6779;50.150;8.680;2022-12-05T04:09:46;3.50;99.90
13416;DHT22;6779;50.150;8.680;2022-12-05T04:12:18;3.50;99.90
13416;DHT22;6779;50.150;8.680;2022-12-05T04:14:55;3.50;99.90
13416;DHT22;6779;50.150;8.680;2022-12-05T04:22:54;3.50;99.90
13416;DHT22;6779;50.150;8.680;2022-12-05T04:25:21;3.50;99.90
13416;DHT22;6779;50.150;8.680;2022-12-05T04:28:26;3.50;99.90
13416;DHT22;6779;50.150;8.680;2022-12-05T04:31:04;3.50;99.90
13416;DHT22;6779;50.150;8.680;2022-12-05T04:33:49;3.60;99.90
13416;DHT22;6779;50.150;8.680;2022-12-05T04:36:42;3.60;99.90
13416;DHT22;6779;50.150;8.680;2022-12-05T04:39:11;3.60;99.90
13416;DHT22;6779;50.150;8.680;2022-12-05T04:41:58;3.60;99.90
13416;DHT22;6779;50.150;8.680;2022-12-05T04:44:29;3.50;99.90
13416;DHT22;6779;50.150;8.680;2022-12-05T04:46:59;3.50;99.90
13416;DHT22;6779;50.150;8.680;2022-12-05T04:49:28;3.50;99.90
13416;DHT22;6779;50.150;8.680;2022-12-05T04:51:57;3.60;99.90
13416;DHT22;6779;50.150;8.680;2022-12-05T04:54:31;3.60;99.90
13416;DHT22;6779;50.150;8.680;2022-12-05T04:59:42;3.60;99.90
13416;DHT22;6779;50.150;8.680;2022-12-05T05:02:09;3.60;99.90
13416;DHT22;6779;50.150;8.680;2022-12-05T05:04:41;3.60;99.90
13416;DHT22;6779;50.150;8.680;2022-12-05T05:07:09;3.60;99.90
13416;DHT22;6779;50.150;8.680;2022-12-05T05:09:36;3.60;99.90
13416;DHT22;6779;50.150;8.680;2022-12-05T05:12:02;3.60;99.90
13416;DHT22;6779;50.150;8.680;2022-12-05T05:14:28;3.70;99.90
13416;DHT22;6779;50.150;8.680;2022-12-05T05:16:54;3.60;99.90
13416;DHT22;6779;50.150;8.680;2022-12-05T05:19:19;3.70;99.90
13416;DHT22;6779;50.150;8.680;2022-12-05T05:21:45;3.70;99.90
13416;DHT22;6779;50.150;8.680;2022-12-05T05:24:11;3.70;99.90
13416;DHT22;6779;50.150;8.680;2022-12-05T05:26:41;3.70;99.90
13416;DHT22;6779;50.150;8.680;2022-12-05T05:29:07;3.70;99.90
13416;DHT22;6779;50.150;8.680;2022-12-05T05:31:34;3.70;99.90
13416;DHT22;6779;50.150;8.680;2022-12-05T05:34:00;3.70;99.90
13416;DHT22;6779;50.150;8.680;2022-12-05T05:36:27;3.70;99.90
13416;DHT22;6779;50.150;8.680;2022-12-05T05:38:55;3.70;99.90
13416;DHT22;6779;50.150;8.680;2022-12-05T05:43:52;3.70;99.90
13416;DHT22;6779;50.150;8.680;2022-12-05T05:46:19;3.80;99.90
13416;DHT22;6779;50.150;8.680;2022-12-05T05:48:46;3.70;99.90
13416;DHT22;6779;50.150;8.680;2022-12-05T05:51:14;3.80;99.90
13416;DHT22;6779;50.150;8.680;2022-12-05T05:53:40;3.80;99.90
13416;DHT22;6779;50.150;8.680;2022-12-05T05:56:09;3.80;99.90
13416;DHT22;6779;50.150;8.680;2022-12-05T05:58:35;3.80;99.90
13416;DHT22;6779;50.150;8.680;2022-12-05T06:01:08;3.70;99.90
13416;DHT22;6779;50.150;8.680;2022-12-05T06:03:35;3.70;99.90
13416;DHT22;6779;50.150;8.680;2022-12-05T06:06:03;3.70;99.90
13416;DHT22;6779;50.150;8.680;2022-12-05T06:08:34;3.80;99.90
13416;DHT22;6779;50.150;8.680;2022-12-05T06:11:04;3.70;99.90
13416;DHT22;6779;50.150;8.680;2022-12-05T06:13:29;3.70;99.90
13416;DHT22;6779;50.150;8.680;2022-12-05T06:15:55;3.70;99.90
13416;DHT22;6779;50.150;8.680;2022-12-05T06:18:20;3.80;99.90
13416;DHT22;6779;50.150;8.680;2022-12-05T06:20:53;3.70;99.90
13416;DHT22;6779;50.150;8.680;2022-12-05T06:23:18;3.70;99.90
13416;DHT22;6779;50.150;8.680;2022-12-05T06:25:53;3.70;99.90
13416;DHT22;6779;50.150;8.680;2022-12-05T06:28:20;3.80;99.90
13416;DHT22;6779;50.150;8.680;2022-12-05T06:30:46;3.80;99.90
13416;DHT22;6779;50.150;8.680;2022-12-05T06:33:12;3.80;99.90
13416;DHT22;6779;50.150;8.680;2022-12-05T06:35:37;3.90;99.90
13416;DHT22;6779;50.150;8.680;2022-12-05T06:38:04;3.80;99.90
13416;DHT22;6779;50.150;8.680;2022-12-05T06:40:30;3.80;99.90
13416;DHT22;6779;50.150;8.680;2022-12-05T06:42:55;3.80;99.90
13416;DHT22;6779;50.150;8.680;2022-12-05T06:45:21;3.80;99.90
13416;DHT22;6779;50.150;8.680;2022-12-05T06:47:46;3.90;99.90
13416;DHT22;6779;50.150;8.680;2022-12-05T06:50:12;3.80;99.90
13416;DHT22;6779;50.150;8.680;2022-12-05T06:52:37;3.90;99.90
13416;DHT22;6779;50.150;8.680;2022-12-05T06:55:03;3.90;99.90
13416;DHT22;6779;50.150;8.680;2022-12-05T06:57:29;3.90;99.90
13416;DHT22;6779;50.150;8.680;2022-12-05T06:59:55;3.90;99.90
13416;DHT22;6779;50.150;8.680;2022-12-05T07:02:40;3.80;99.90
13416;DHT22;6779;50.150;8.680;2022-12-05T07:05:10;3.70;99.90
13416;DHT22;6779;50.150;8.680;2022-12-05T07:07:36;3.80;99.90
13416;DHT22;6779;50.150;8.680;2022-12-05T07:10:03;3.80;99.90
13416;DHT22;6779;50.150;8.680;2022-12-05T07:12:31;3.70;99.90
13416;DHT22;6779;50.150;8.680;2022-12-05T07:14:57;3.80;99.90
13416;DHT22;6779;50.150;8.680;2022-12-05T07:17:23;3.80;99.90
13416;DHT22;6779;50.150;8.680;2022-12-05T07:19:50;3.90;99.90
13416;DHT22;6779;50.150;8.680;2022-12-05T07:22:17;3.90;99.90
13416;DHT22;6779;50.150;8.680;2022-12-05T07:24:43;3.90;99.90
13416;DHT22;6779;50.150;8.680;2022-12-05T07:27:09;3.90;99.90
13416;DHT22;6779;50.150;8.680;2022-12-05T07:29:34;3.90;99.90
13416;DHT22;6779;50.150;8.680;2022-12-05T07:32:00;3.80;99.90
13416;DHT22;6779;50.150;8.680;2022-12-05T07:34:26;3.90;99.90
13416;DHT22;6779;50.150;8.680;2022-12-05T07:36:51;3.90;99.90
13416;DHT22;6779;50.150;8.680;2022-12-05T07:39:17;3.90;99.90
13416;DHT22;6779;50.150;8.680;2022-12-05T07:41:42;3.90;99.90
13416;DHT22;6779;50.150;8.680;2022-12-05T07:44:10;3.90;99.90
13416;DHT22;6779;50.150;8.680;2022-12-05T07:46:36;3.90;99.90
13416;DHT22;6779;50.150;8.680;2022-12-05T07:49:02;3.90;99.90
13416;DHT22;6779;50.150;8.680;2022-12-05T07:51:27;4.00;99.90
13416;DHT22;6779;50.150;8.680;2022-12-05T07:53:53;4.00;99.90
13416;DHT22;6779;50.150;8.680;2022-12-05T07:56:19;4.00;99.90
13416;DHT22;6779;50.150;8.680;2022-12-05T07:58:46;4.00;99.90
13416;DHT22;6779;50.150;8.680;2022-12-05T08:01:16;4.00;99.90
13416;DHT22;6779;50.150;8.680;2022-12-05T08:03:42;4.00;99.90
13416;DHT22;6779;50.150;8.680;2022-12-05T08:06:19;4.10;99.90
13416;DHT22;6779;50.150;8.680;2022-12-05T08:08:46;4.00;99.90
13416;DHT22;6779;50.150;8.680;2022-12-05T08:11:20;4.10;99.90
13416;DHT22;6779;50.150;8.680;2022-12-05T08:13:47;4.10;99.90
13416;DHT22;6779;50.150;8.680;2022-12-05T08:16:18;4.10;99.90
13416;DHT22;6779;50.150;8.680;2022-12-05T08:18:44;4.20;99.90
13416;DHT22;6779;50.150;8.680;2022-12-05T08:21:15;4.20;99.90
13416;DHT22;6779;50.150;8.680;2022-12-05T08:23:42;4.30;99.90
13416;DHT22;6779;50.150;8.680;2022-12-05T08:26:11;4.30;99.90
13416;DHT22;6779;50.150;8.680;2022-12-05T08:28:37;4.20;99.90
13416;DHT22;6779;50.150;8.680;2022-12-05T08:31:11;4.20;99.90
13416;DHT22;6779;50.150;8.680;2022-12-05T08:33:38;4.10;99.90
13416;DHT22;6779;50.150;8.680;2022-12-05T08:36:05;4.20;99.90
13416;DHT22;6779;50.150;8.680;2022-12-05T08:38:32;4.10;99.90
13416;DHT22;6779;50.150;8.680;2022-12-05T08:41:02;4.10;99.90
13416;DHT22;6779;50.150;8.680;2022-12-05T08:43:28;4.20;99.90
13416;DHT22;6779;50.150;8.680;2022-12-05T08:45:54;4.30;99.90
13416;DHT22;6779;50.150;8.680;2022-12-05T08:48:21;4.20;99.90
13416;DHT22;6779;50.150;8.680;2022-12-05T08:50:47;4.20;99.90
13416;DHT22;6779;50.150;8.680;2022-12-05T08:53:13;4.20;99.90
13416;DHT22;6779;50.150;8.680;2022-12-05T08:55:39;4.30;99.90
13416;DHT22;6779;50.150;8.680;2022-12-05T08:58:04;4.30;99.90
13416;DHT22;6779;50.150;8.680;2022-12-05T09:00:30;4.30;99.90
13416;DHT22;6779;50.150;8.680;2022-12-05T09:02:56;4.30;99.90
13416;DHT22;6779;50.150;8.680;2022-12-05T09:05:22;4.30;99.90
13416;DHT22;6779;50.150;8.680;2022-12-05T09:07:47;4.30;99.90
13416;DHT22;6779;50.150;8.680;2022-12-05T09:10:13;4.30;99.90
13416;DHT22;6779;50.150;8.680;2022-12-05T09:12:39;4.30;99.90
13416;DHT22;6779;50.150;8.680;2022-12-05T09:15:08;4.40;99.90
13416;DHT22;6779;50.150;8.680;2022-12-05T09:17:34;4.40;99.90
13416;DHT22;6779;50.150;8.680;2022-12-05T09:20:00;4.30;99.90
13416;DHT22;6779;50.150;8.680;2022-12-05T09:22:25;4.30;99.90
13416;DHT22;6779;50.150;8.680;2022-12-05T09:24:51;4.40;99.90
13416;DHT22;6779;50.150;8.680;2022-12-05T09:27:17;4.30;99.90
13416;DHT22;6779;50.150;8.680;2022-12-05T09:29:42;4.30;99.90
13416;DHT22;6779;50.150;8.680;2022-12-05T09:32:09;4.40;99.90
13416;DHT22;6779;50.150;8.680;2022-12-05T09:34:36;4.30;99.90
13416;DHT22;6779;50.150;8.680;2022-12-05T09:37:03;4.30;99.90
13416;DHT22;6779;50.150;8.680;2022-12-05T09:39:28;4.40;99.90
13416;DHT22;6779;50.150;8.680;2022-12-05T09:55:45;4.60;99.90
13416;DHT22;6779;50.150;8.680;2022-12-05T09:58:40;4.60;99.90
13416;DHT22;6779;50.150;8.680;2022-12-05T10:07:16;4.50;99.90
13416;DHT22;6779;50.150;8.680;2022-12-05T10:15:29;4.40;99.90
13416;DHT22;6779;50.150;8.680;2022-12-05T10:18:03;4.40;99.90
13416;DHT22;6779;50.150;8.680;2022-12-05T10:23:23;4.40;99.90
13416;DHT22;6779;50.150;8.680;2022-12-05T10:25:55;4.40;99.90
13416;DHT22;6779;50.150;8.680;2022-12-05T10:28:34;4.50;99.90
13416;DHT22;6779;50.150;8.680;2022-12-05T10:31:05;4.50;99.90
13416;DHT22;6779;50.150;8.680;2022-12-05T10:33:39;4.60;99.90
13416;DHT22;6779;50.150;8.680;2022-12-05T10:36:11;4.60;99.90
13416;DHT22;6779;50.150;8.680;2022-12-05T10:38:37;4.60;99.90
13416;DHT22;6779;50.150;8.680;2022-12-05T10:41:09;4.70;99.90
13416;DHT22;6779;50.150;8.680;2022-12-05T10:43:37;4.70;99.90
13416;DHT22;6779;50.150;8.680;2022-12-05T10:46:03;4.70;99.90
13416;DHT22;6779;50.150;8.680;2022-12-05T10:48:29;4.60;99.90
13416;DHT22;6779;50.150;8.680;2022-12-05T10:50:58;4.70;99.90
13416;DHT22;6779;50.150;8.680;2022-12-05T10:53:38;4.60;99.90
13416;DHT22;6779;50.150;8.680;2022-12-05T10:56:36;4.50;99.90
13416;DHT22;6779;50.150;8.680;2022-12-05T10:59:02;4.50;99.90
13416;DHT22;6779;50.150;8.680;2022-12-05T11:01:28;4.60;99.90
13416;DHT22;6779;50.150;8.680;2022-12-05T11:04:03;4.60;99.90
13416;DHT22;6779;50.150;8.680;2022-12-05T11:06:31;4.70;99.90
13416;DHT22;6779;50.150;8.680;2022-12-05T11:09:22;4.70;99.90
13416;DHT22;6779;50.150;8.680;2022-12-05T11:12:16;4.70;99.90
13416;DHT22;6779;50.150;8.680;2022-12-05T11:15:03;4.60;99.90
13416;DHT22;6779;50.150;8.680;2022-12-05T11:17:34;4.60;99.90
13416;DHT22;6779;50.150;8.680;2022-12-05T11:20:01;4.60;99.90
13416;DHT22;6779;50.150;8.680;2022-12-05T11:22:34;4.70;99.90
13416;DHT22;6779;50.150;8.680;2022-12-05T11:25:00;4.60;99.90
13416;DHT22;6779;50.150;8.680;2022-12-05T11:27:31;4.70;99.90
13416;DHT22;6779;50.150;8.680;2022-12-05T11:29:58;4.80;99.90
13416;DHT22;6779;50.150;8.680;2022-12-05T11:32:27;4.80;99.90
13416;DHT22;6779;50.150;8.680;2022-12-05T11:37:57;4.70;99.90
13416;DHT22;6779;50.150;8.680;2022-12-05T11:40:34;4.70;99.90
13416;DHT22;6779;50.150;8.680;2022-12-05T11:43:16;4.70;99.90
13416;DHT22;6779;50.150;8.680;2022-12-05T11:49:02;4.70;99.90
13416;DHT22;6779;50.150;8.680;2022-12-05T11:54:50;4.70;99.90
13416;DHT22;6779;50.150;8.680;2022-12-05T12:00:33;4.90;99.90
13416;DHT22;6779;50.150;8.680;2022-12-05T12:08:28;4.80;99.90
13416;DHT22;6779;50.150;8.680;2022-12-05T12:14:00;5.00;99.90
13416;DHT22;6779;50.150;8.680;2022-12-05T12:19:20;4.90;99.90
13416;DHT22;6779;50.150;8.680;2022-12-05T12:27:53;4.80;99.90
13416;DHT22;6779;50.150;8.680;2022-12-05T12:30:25;4.60;99.90
13416;DHT22;6779;50.150;8.680;2022-12-05T12:33:14;4.70;99.90
13416;DHT22;6779;50.150;8.680;2022-12-05T12:41:51;4.70;99.90
13416;DHT22;6779;50.150;8.680;2022-12-05T12:44:44;4.70;99.90
13416;DHT22;6779;50.150;8.680;2022-12-05T12:50:20;4.80;99.90
13416;DHT22;6779;50.150;8.680;2022-12-05T12:55:56;4.70;99.90
13416;DHT22;6779;50.150;8.680;2022-12-05T12:58:42;4.70;99.90
13416;DHT22;6779;50.150;8.680;2022-12-05T13:01:31;4.60;99.90
13416;DHT22;6779;50.150;8.680;2022-12-05T13:04:08;4.60;99.90
13416;DHT22;6779;50.150;8.680;2022-12-05T13:09:32;4.70;99.90
13416;DHT22;6779;50.150;8.680;2022-12-05T13:12:05;4.70;99.90
13416;DHT22;6779;50.150;8.680;2022-12-05T13:14:33;4.70;99.90
13416;DHT22;6779;50.150;8.680;2022-12-05T13:17:01;4.70;99.90
13416;DHT22;6779;50.150;8.680;2022-12-05T13:19:41;4.70;99.90
13416;DHT22;6779;50.150;8.680;2022-12-05T13:22:08;4.80;99.90
13416;DHT22;6779;50.150;8.680;2022-12-05T13:24:34;4.80;99.90
13416;DHT22;6779;50.150;8.680;2022-12-05T13:27:08;4.90;99.90
13416;DHT22;6779;50.150;8.680;2022-12-05T13:29:38;5.00;99.90
13416;DHT22;6779;50.150;8.680;2022-12-05T13:32:06;5.00;99.90
13416;DHT22;6779;50.150;8.680;2022-12-05T13:34:48;5.00;99.90
13416;DHT22;6779;50.150;8.680;2022-12-05T13:37:30;5.00;99.90
13416;DHT22;6779;50.150;8.680;2022-12-05T13:40:33;4.90;99.90
13416;DHT22;6779;50.150;8.680;2022-12-05T13:43:26;4.90;99.90
13416;DHT22;6779;50.150;8.680;2022-12-05T13:46:07;5.00;99.90
13416;DHT22;6779;50.150;8.680;2022-12-05T13:48:40;5.00;99.90
13416;DHT22;6779;50.150;8.680;2022-12-05T13:51:29;5.00;99.90
13416;DHT22;6779;50.150;8.680;2022-12-05T14:07:54;4.90;99.90
13416;DHT22;6779;50.150;8.680;2022-12-05T14:12:57;4.90;99.90
13416;DHT22;6779;50.150;8.680;2022-12-05T14:15:27;4.90;99.90
13416;DHT22;6779;50.150;8.680;2022-12-05T14:18:17;4.90;99.90
13416;DHT22;6779;50.150;8.680;2022-12-05T14:34:31;4.90;99.90
13416;DHT22;6779;50.150;8.680;2022-12-05T14:37:30;4.90;99.90
13416;DHT22;6779;50.150;8.680;2022-12-05T14:40:19;4.90;99.90
13416;DHT22;6779;50.150;8.680;2022-12-05T14:43:05;5.00;99.90
13416;DHT22;6779;50.150;8.680;2022-12-05T14:45:39;5.00;99.90
13416;DHT22;6779;50.150;8.680;2022-12-05T14:55:47;5.00;99.90
13416;DHT22;6779;50.150;8.680;2022-12-05T15:04:17;5.00;99.90
13416;DHT22;6779;50.150;8.680;2022-12-05T15:09:42;5.00;99.90
13416;DHT22;6779;50.150;8.680;2022-12-05T15:12:27;5.10;99.90
13416;DHT22;6779;50.150;8.680;2022-12-05T15:15:46;5.00;99.90
13416;DHT22;6779;50.150;8.680;2022-12-05T15:17:59;5.00;99.90
13416;DHT22;6779;50.150;8.680;2022-12-05T15:20:43;5.10;99.90
13416;DHT22;6779;50.150;8.680;2022-12-05T15:23:45;5.00;99.90
13416;DHT22;6779;50.150;8.680;2022-12-05T15:28:37;5.00;99.90
13416;DHT22;6779;50.150;8.680;2022-12-05T15:31:03;5.00;99.90
13416;DHT22;6779;50.150;8.680;2022-12-05T15:33:29;4.90;99.90
13416;DHT22;6779;50.150;8.680;2022-12-05T15:35:55;4.90;99.90
13416;DHT22;6779;50.150;8.680;2022-12-05T15:38:26;4.90;99.90
13416;DHT22;6779;50.150;8.680;2022-12-05T15:40:53;4.90;99.90
13416;DHT22;6779;50.150;8.680;2022-12-05T15:43:27;4.90;99.90
13416;DHT22;6779;50.150;8.680;2022-12-05T15:46:28;5.00;99.90
13416;DHT22;6779;50.150;8.680;2022-12-05T15:48:55;4.90;99.90
13416;DHT22;6779;50.150;8.680;2022-12-05T15:51:30;4.90;99.90
13416;DHT22;6779;50.150;8.680;2022-12-05T15:54:17;5.00;99.90
13416;DHT22;6779;50.150;8.680;2022-12-05T15:56:55;5.00;99.90
13416;DHT22;6779;50.150;8.680;2022-12-05T15:59:58;5.10;99.90
13416;DHT22;6779;50.150;8.680;2022-12-05T16:05:04;5.00;99.90
13416;DHT22;6779;50.150;8.680;2022-12-05T16:07:30;5.10;99.90
13416;DHT22;6779;50.150;8.680;2022-12-05T16:09:58;5.00;99.90
13416;DHT22;6779;50.150;8.680;2022-12-05T16:12:37;5.10;99.90
13416;DHT22;6779;50.150;8.680;2022-12-05T16:15:10;5.10;99.90
13416;DHT22;6779;50.150;8.680;2022-12-05T16:17:43;5.10;99.90
13416;DHT22;6779;50.150;8.680;2022-12-05T16:20:19;5.00;99.90
13416;DHT22;6779;50.150;8.680;2022-12-05T16:22:52;5.00;99.90
13416;DHT22;6779;50.150;8.680;2022-12-05T16:25:26;5.10;99.90
13416;DHT22;6779;50.150;8.680;2022-12-05T16:28:17;5.10;99.90
13416;DHT22;6779;50.150;8.680;2022-12-05T16:30:59;5.10;99.90
13416;DHT22;6779;50.150;8.680;2022-12-05T16:33:27;5.10;99.90
13416;DHT22;6779;50.150;8.680;2022-12-05T16:35:53;5.10;99.90
13416;DHT22;6779;50.150;8.680;2022-12-05T16:38:24;5.10;99.90
13416;DHT22;6779;50.150;8.680;2022-12-05T16:41:01;5.10;99.90
13416;DHT22;6779;50.150;8.680;2022-12-05T16:49:16;5.20;99.90
13416;DHT22;6779;50.150;8.680;2022-12-05T16:52:00;5.20;99.90
13416;DHT22;6779;50.150;8.680;2022-12-05T16:54:26;5.20;99.90
13416;DHT22;6779;50.150;8.680;2022-12-05T16:56:52;5.20;99.90
13416;DHT22;6779;50.150;8.680;2022-12-05T16:59:24;5.20;99.90
13416;DHT22;6779;50.150;8.680;2022-12-05T17:01:51;5.30;99.90
13416;DHT22;6779;50.150;8.680;2022-12-05T17:04:17;5.30;99.90
13416;DHT22;6779;50.150;8.680;2022-12-05T17:06:42;5.20;99.90
13416;DHT22;6779;50.150;8.680;2022-12-05T17:09:08;5.20;99.90
13416;DHT22;6779;50.150;8.680;2022-12-05T17:11:34;5.20;99.90
13416;DHT22;6779;50.150;8.680;2022-12-05T17:14:01;5.30;99.90
13416;DHT22;6779;50.150;8.680;2022-12-05T17:16:27;5.30;99.90
13416;DHT22;6779;50.150;8.680;2022-12-05T17:18:53;5.30;99.90
13416;DHT22;6779;50.150;8.680;2022-12-05T17:21:24;5.30;99.90
13416;DHT22;6779;50.150;8.680;2022-12-05T17:23:50;5.30;99.90
13416;DHT22;6779;50.150;8.680;2022-12-05T17:26:18;5.30;99.90
13416;DHT22;6779;50.150;8.680;2022-12-05T17:28:44;5.30;99.90
13416;DHT22;6779;50.150;8.680;2022-12-05T17:31:18;5.20;99.90
13416;DHT22;6779;50.150;8.680;2022-12-05T17:33:44;5.30;99.90
13416;DHT22;6779;50.150;8.680;2022-12-05T17:36:11;5.40;99.90
13416;DHT22;6779;50.150;8.680;2022-12-05T17:38:36;5.40;99.90
13416;DHT22;6779;50.150;8.680;2022-12-05T17:41:02;5.40;99.90
13416;DHT22;6779;50.150;8.680;2022-12-05T17:43:28;5.40;99.90
13416;DHT22;6779;50.150;8.680;2022-12-05T17:45:53;5.40;99.90
13416;DHT22;6779;50.150;8.680;2022-12-05T17:48:19;5.40;99.90
13416;DHT22;6779;50.150;8.680;2022-12-05T17:50:47;5.40;99.90
13416;DHT22;6779;50.150;8.680;2022-12-05T17:53:15;5.40;99.90
13416;DHT22;6779;50.150;8.680;2022-12-05T17:55:41;5.40;99.90
13416;DHT22;6779;50.150;8.680;2022-12-05T17:58:07;5.50;99.90
13416;DHT22;6779;50.150;8.680;2022-12-05T18:00:33;5.40;99.90
13416;DHT22;6779;50.150;8.680;2022-12-05T18:02:59;5.50;99.90
13416;DHT22;6779;50.150;8.680;2022-12-05T18:05:24;5.50;99.90
13416;DHT22;6779;50.150;8.680;2022-12-05T18:07:50;5.40;99.90
13416;DHT22;6779;50.150;8.680;2022-12-05T18:10:18;5.40;99.90
13416;DHT22;6779;50.150;8.680;2022-12-05T18:12:45;5.40;99.90
13416;DHT22;6779;50.150;8.680;2022-12-05T18:15:11;5.40;99.90
13416;DHT22;6779;50.150;8.680;2022-12-05T18:17:37;5.30;99.90
13416;DHT22;6779;50.150;8.680;2022-12-05T18:20:04;5.30;99.90
13416;DHT22;6779;50.150;8.680;2022-12-05T18:22:30;5.30;99.90
13416;DHT22;6779;50.150;8.680;2022-12-05T18:24:55;5.40;99.90
13416;DHT22;6779;50.150;8.680;2022-12-05T18:27:22;5.40;99.90
13416;DHT22;6779;50.150;8.680;2022-12-05T18:29:49;5.40;99.90
13416;DHT22;6779;50.150;8.680;2022-12-05T18:32:14;5.50;99.90
13416;DHT22;6779;50.150;8.680;2022-12-05T18:34:40;5.50;99.90
13416;DHT22;6779;50.150;8.680;2022-12-05T18:37:06;5.40;99.90
13416;DHT22;6779;50.150;8.680;2022-12-05T18:39:31;5.40;99.90
13416;DHT22;6779;50.150;8.680;2022-12-05T18:41:57;5.40;99.90
13416;DHT22;6779;50.150;8.680;2022-12-05T18:44:22;5.40;99.90
13416;DHT22;6779;50.150;8.680;2022-12-05T18:46:48;5.50;99.90
13416;DHT22;6779;50.150;8.680;2022-12-05T18:49:14;5.40;99.90
13416;DHT22;6779;50.150;8.680;2022-12-05T18:51:39;5.40;99.90
13416;DHT22;6779;50.150;8.680;2022-12-05T18:54:05;5.40;99.90
13416;DHT22;6779;50.150;8.680;2022-12-05T18:56:33;5.50;99.90
13416;DHT22;6779;50.150;8.680;2022-12-05T18:59:07;5.40;99.90
13416;DHT22;6779;50.150;8.680;2022-12-05T19:01:35;5.50;99.90
13416;DHT22;6779;50.150;8.680;2022-12-05T19:04:02;5.50;99.90
13416;DHT22;6779;50.150;8.680;2022-12-05T19:06:30;5.40;99.90